M/V Manukai — WRGD — position and weather

sailwx.info

Track history (hours):
 
Tides and Currents Weather Stations Pressure Air Temp Water Temp Dewpoint Dewpoint Depression Visibility Wind Speed Wind Dir Waves Ship Positions

M/V Manukai

Owner: Matson Navigation Company, Inc., Oakland, CA. More information available from US FCC via Universal Licensing System and Coast Guard Vessel Documentation Center.

Last reported at 2015-Apr-11 18:00 UTC. Time now 2015-Apr-21 14:39 UTC.
Position N 29°30' W 147°48'.
Warning: this ship's position is 9 days out of date.

Type: Ship (hazmat cat A). MMSI: 369296000.

Wind from 080 at 19 knots

Waves 1.5 meters (5 feet), 4 second period

Barometer 1018.0 mb
Air temperature 20.0 ° C
Visibility: greater than 10.8 NM
Dewpoint 15.3 ° C
Water temperature 23.2 ° C

Date/timePositionNaut miles runAvg speedWind from/ knotsBaromVisibWave heightAir tempDewpointWater temp
2015-Apr-11 18:00N 29°30' W 147°48'73520.4 080 / 191018.010.8 1.520.015.323.2
2015-Apr-10 06:00N 30°12' W 133°42'78521.0 310 / 241013.010.8 15.0 7.619.3
2015-Apr-08 16:33N 33°26' W 118°47'34 7.9
2015-Apr-08 12:12N 33°44' W 118°11'3 4.8
2015-Apr-08 11:33N 33°46' W 118°13'0 0.1
2015-Apr-08 10:33N 33°46' W 118°13'0 0.0
2015-Apr-08 09:33N 33°46' W 118°13'0 0.0
2015-Apr-08 08:30N 33°46' W 118°13'0 0.0
2015-Apr-08 07:33N 33°46' W 118°13'0 0.0
2015-Apr-08 06:33N 33°46' W 118°13'0 0.0
2015-Apr-08 05:33N 33°46' W 118°13'0 0.0
2015-Apr-08 04:33N 33°46' W 118°13'0 0.0
2015-Apr-08 03:33N 33°46' W 118°13'0 0.0
2015-Apr-08 02:33N 33°46' W 118°13'0 0.0
2015-Apr-08 01:27N 33°46' W 118°13'0 0.0
2015-Apr-08 00:33N 33°46' W 118°13'0 0.0
2015-Apr-07 23:33N 33°46' W 118°13'0 0.0
2015-Apr-07 22:33N 33°46' W 118°13'0 0.0
2015-Apr-07 21:33N 33°46' W 118°13'0 0.0
2015-Apr-07 20:33N 33°46' W 118°13'0 0.0
2015-Apr-07 19:33N 33°46' W 118°13'0 0.0
2015-Apr-07 18:33N 33°46' W 118°13'0 0.0
2015-Apr-07 17:30N 33°46' W 118°13'0 0.0
2015-Apr-07 16:33N 33°46' W 118°13'0 0.0
2015-Apr-07 15:33N 33°46' W 118°13'0 0.0
2015-Apr-07 14:33N 33°46' W 118°13'0 0.0
2015-Apr-07 13:33N 33°46' W 118°13'0 0.0
2015-Apr-07 12:33N 33°46' W 118°13'0 0.0
2015-Apr-07 11:33N 33°46' W 118°13'0 0.0
2015-Apr-07 10:33N 33°46' W 118°13'0 0.0
2015-Apr-07 09:33N 33°46' W 118°13'0 0.0
2015-Apr-07 08:33N 33°46' W 118°13'0 0.0
2015-Apr-07 07:33N 33°46' W 118°13'0 0.0
2015-Apr-07 06:33N 33°46' W 118°13'0 0.0
2015-Apr-07 05:33N 33°46' W 118°13'0 0.0
2015-Apr-07 04:33N 33°46' W 118°13'0 0.0
2015-Apr-07 01:21N 33°46' W 118°13'0 0.0
2015-Apr-07 00:30N 33°46' W 118°13'0 0.0
2015-Apr-06 23:33N 33°46' W 118°13'0 0.0
2015-Apr-06 22:33N 33°46' W 118°13'0 0.0
2015-Apr-06 21:33N 33°46' W 118°13'0 0.0
2015-Apr-06 20:33N 33°46' W 118°13'0 0.0
2015-Apr-06 19:33N 33°46' W 118°13'0 0.0
2015-Apr-06 18:33N 33°46' W 118°13'0 0.0
2015-Apr-06 17:33N 33°46' W 118°13'0 0.0
2015-Apr-06 16:33N 33°46' W 118°13'0 0.0
2015-Apr-06 15:33N 33°46' W 118°13'0 0.0
2015-Apr-06 14:33N 33°46' W 118°13'0 0.0
2015-Apr-06 13:33N 33°46' W 118°13'0 0.0
2015-Apr-06 12:33N 33°46' W 118°13'0 0.0
2015-Apr-06 11:33N 33°46' W 118°13'0 0.0
2015-Apr-06 10:33N 33°46' W 118°13'0 0.0
2015-Apr-06 09:33N 33°46' W 118°13'0 0.0
2015-Apr-06 08:33N 33°46' W 118°13'0 0.0
2015-Apr-06 07:30N 33°46' W 118°13'0 0.0
2015-Apr-06 06:27N 33°46' W 118°13'0 0.0
2015-Apr-06 05:33N 33°46' W 118°13'0 0.0
2015-Apr-06 04:33N 33°46' W 118°13'0 0.0
2015-Apr-06 03:33N 33°46' W 118°13'0 0.0
2015-Apr-06 02:33N 33°46' W 118°13'0 0.0
2015-Apr-06 01:18N 33°46' W 118°13'0 0.1
2015-Apr-06 00:33N 33°46' W 118°13'0 0.0
2015-Apr-05 23:33N 33°46' W 118°13'0 0.0
2015-Apr-05 22:33N 33°46' W 118°13'0 0.0
2015-Apr-05 21:33N 33°46' W 118°13'0 0.0
2015-Apr-05 20:33N 33°46' W 118°13'0 0.0
2015-Apr-05 19:33N 33°46' W 118°13'0 0.0
2015-Apr-05 18:33N 33°46' W 118°13'0 0.0
2015-Apr-05 17:33N 33°46' W 118°13'0 0.0
2015-Apr-05 16:33N 33°46' W 118°13'4 4.0
2015-Apr-05 15:33N 33°43' W 118°11'31 9.4
2015-Apr-05 12:16N 33°39' W 118°48'5 6.6
2015-Apr-05 11:29N 33°39' W 118°54'1717.8
2015-Apr-05 10:34N 33°40' W 119°14'7518.7
2015-Apr-05 06:33N 33°45' W 120°44'5790882.9
2015-Apr-05 00:00N 33°54' E 123°06'5553925.5 330 / 241018.310.8 3.513.3 2.215.3
2015-Apr-04 18:00N 34°12' W 125°12'55423.1 360 / 191022.510.8 2.016.012.616.3
2015-Apr-03 18:00N 39°18' W 134°48'   300 / 91030.210.8 1.013.0 9.414.5
Track history (hours):
 
Tides and Currents Weather Stations Pressure Air Temp Water Temp Dewpoint Dewpoint Depression Visibility Wind Speed Wind Dir Waves Ship Positions

M/V Manukai

Owner: Matson Navigation Company, Inc., Oakland, CA. More information available from US FCC via Universal Licensing System and Coast Guard Vessel Documentation Center.

Last reported at 2015-Apr-11 18:00 UTC. Time now 2015-Apr-21 14:39 UTC.
Position N 29°30' W 147°48'.
Warning: this ship's position is 9 days out of date.

Type: Ship (hazmat cat A). MMSI: 369296000.

Wind from 080 at 19 knots

Waves 1.5 meters (5 feet), 4 second period

Barometer 1018.0 mb
Air temperature 20.0 ° C
Visibility: greater than 10.8 NM
Dewpoint 15.3 ° C
Water temperature 23.2 ° C

Date/timePositionNaut miles runAvg speedWind from/ knotsBaromVisibWave heightAir tempDewpointWater temp
2015-Apr-11 18:00N 29°30' W 147°48'73520.4 080 / 191018.010.8 1.520.015.323.2
2015-Apr-10 06:00N 30°12' W 133°42'78521.0 310 / 241013.010.8 15.0 7.619.3
2015-Apr-08 16:33N 33°26' W 118°47'34 7.9
2015-Apr-08 12:12N 33°44' W 118°11'3 4.8
2015-Apr-08 11:33N 33°46' W 118°13'0 0.1
2015-Apr-08 10:33N 33°46' W 118°13'0 0.0
2015-Apr-08 09:33N 33°46' W 118°13'0 0.0
2015-Apr-08 08:30N 33°46' W 118°13'0 0.0
2015-Apr-08 07:33N 33°46' W 118°13'0 0.0
2015-Apr-08 06:33N 33°46' W 118°13'0 0.0
2015-Apr-08 05:33N 33°46' W 118°13'0 0.0
2015-Apr-08 04:33N 33°46' W 118°13'0 0.0
2015-Apr-08 03:33N 33°46' W 118°13'0 0.0
2015-Apr-08 02:33N 33°46' W 118°13'0 0.0
2015-Apr-08 01:27N 33°46' W 118°13'0 0.0
2015-Apr-08 00:33N 33°46' W 118°13'0 0.0
2015-Apr-07 23:33N 33°46' W 118°13'0 0.0
2015-Apr-07 22:33N 33°46' W 118°13'0 0.0
2015-Apr-07 21:33N 33°46' W 118°13'0 0.0
2015-Apr-07 20:33N 33°46' W 118°13'0 0.0
2015-Apr-07 19:33N 33°46' W 118°13'0 0.0
2015-Apr-07 18:33N 33°46' W 118°13'0 0.0
2015-Apr-07 17:30N 33°46' W 118°13'0 0.0
2015-Apr-07 16:33N 33°46' W 118°13'0 0.0
2015-Apr-07 15:33N 33°46' W 118°13'0 0.0
2015-Apr-07 14:33N 33°46' W 118°13'0 0.0
2015-Apr-07 13:33N 33°46' W 118°13'0 0.0
2015-Apr-07 12:33N 33°46' W 118°13'0 0.0
2015-Apr-07 11:33N 33°46' W 118°13'0 0.0
2015-Apr-07 10:33N 33°46' W 118°13'0 0.0
2015-Apr-07 09:33N 33°46' W 118°13'0 0.0
2015-Apr-07 08:33N 33°46' W 118°13'0 0.0
2015-Apr-07 07:33N 33°46' W 118°13'0 0.0
2015-Apr-07 06:33N 33°46' W 118°13'0 0.0
2015-Apr-07 05:33N 33°46' W 118°13'0 0.0
2015-Apr-07 04:33N 33°46' W 118°13'0 0.0
2015-Apr-07 01:21N 33°46' W 118°13'0 0.0
2015-Apr-07 00:30N 33°46' W 118°13'0 0.0
2015-Apr-06 23:33N 33°46' W 118°13'0 0.0
2015-Apr-06 22:33N 33°46' W 118°13'0 0.0
2015-Apr-06 21:33N 33°46' W 118°13'0 0.0
2015-Apr-06 20:33N 33°46' W 118°13'0 0.0
2015-Apr-06 19:33N 33°46' W 118°13'0 0.0
2015-Apr-06 18:33N 33°46' W 118°13'0 0.0
2015-Apr-06 17:33N 33°46' W 118°13'0 0.0
2015-Apr-06 16:33N 33°46' W 118°13'0 0.0
2015-Apr-06 15:33N 33°46' W 118°13'0 0.0
2015-Apr-06 14:33N 33°46' W 118°13'0 0.0
2015-Apr-06 13:33N 33°46' W 118°13'0 0.0
2015-Apr-06 12:33N 33°46' W 118°13'0 0.0
2015-Apr-06 11:33N 33°46' W 118°13'0 0.0
2015-Apr-06 10:33N 33°46' W 118°13'0 0.0
2015-Apr-06 09:33N 33°46' W 118°13'0 0.0
2015-Apr-06 08:33N 33°46' W 118°13'0 0.0
2015-Apr-06 07:30N 33°46' W 118°13'0 0.0
2015-Apr-06 06:27N 33°46' W 118°13'0 0.0
2015-Apr-06 05:33N 33°46' W 118°13'0 0.0
2015-Apr-06 04:33N 33°46' W 118°13'0 0.0
2015-Apr-06 03:33N 33°46' W 118°13'0 0.0
2015-Apr-06 02:33N 33°46' W 118°13'0 0.0
2015-Apr-06 01:18N 33°46' W 118°13'0 0.1
2015-Apr-06 00:33N 33°46' W 118°13'0 0.0
2015-Apr-05 23:33N 33°46' W 118°13'0 0.0
2015-Apr-05 22:33N 33°46' W 118°13'0 0.0
2015-Apr-05 21:33N 33°46' W 118°13'0 0.0
2015-Apr-05 20:33N 33°46' W 118°13'0 0.0
2015-Apr-05 19:33N 33°46' W 118°13'0 0.0
2015-Apr-05 18:33N 33°46' W 118°13'0 0.0
2015-Apr-05 17:33N 33°46' W 118°13'0 0.0
2015-Apr-05 16:33N 33°46' W 118°13'4 4.0
2015-Apr-05 15:33N 33°43' W 118°11'31 9.4
2015-Apr-05 12:16N 33°39' W 118°48'5 6.6
2015-Apr-05 11:29N 33°39' W 118°54'1717.8
2015-Apr-05 10:34N 33°40' W 119°14'7518.7
2015-Apr-05 06:33N 33°45' W 120°44'5790882.9
2015-Apr-05 00:00N 33°54' E 123°06'5553925.5 330 / 241018.310.8 3.513.3 2.215.3
2015-Apr-04 18:00N 34°12' W 125°12'55423.1 360 / 191022.510.8 2.016.012.616.3
2015-Apr-03 18:00N 39°18' W 134°48'   300 / 91030.210.8 1.013.0 9.414.5

Dump ship's entire track history